Time;durP1;ratioP1;P1;durP2;ratioP2;P2;SDS_P1;SDS_P2;PMS_P1;PMS_P2;Temp;Humidity;BMP_temperature;BMP_pressure;BME280_temperature;BME280_humidity;BME280_pressure;Samples;Min_cycle;Max_cycle;Signal;HPM_P1;HPM_P2
2021/06/16 06:24:23;;;;;;;15.48;5.80;;;18.30;99.90;;;;;;3610389;39;63394;-87
2021/06/16 06:26:49;;;;;;;16.67;4.90;;;18.20;99.90;;;;;;3618876;39;20057;-84
2021/06/16 06:29:15;;;;;;;10.07;5.63;;;18.60;99.90;;;;;;3621212;39;20309;-85
2021/06/16 06:31:41;;;;;;;15.35;5.32;;;18.90;99.90;;;;;;3624182;39;20138;-88
2021/06/16 06:34:06;;;;;;;20.38;5.85;;;19.40;99.90;;;;;;3605238;39;20039;-84
2021/06/16 06:36:32;;;;;;;16.17;7.38;;;19.10;99.90;;;;;;3614335;39;20479;-83
2021/06/16 06:38:58;;;;;;;12.52;7.82;;;18.70;99.90;;;;;;3616805;39;20321;-83
2021/06/16 06:41:24;;;;;;;10.70;6.15;;;18.50;99.90;;;;;;3624128;39;20049;-82
2021/06/16 06:43:50;;;;;;;17.55;6.68;;;18.60;99.90;;;;;;3619351;39;20572;-83
2021/06/16 06:46:15;;;;;;;11.13;5.97;;;18.20;99.90;;;;;;3616124;39;20105;-83
2021/06/16 06:48:41;;;;;;;14.85;6.43;;;18.20;99.90;;;;;;3618307;39;20415;-82
2021/06/16 06:51:07;;;;;;;13.55;6.32;;;18.90;99.90;;;;;;3615933;39;20051;-82
2021/06/16 06:53:33;;;;;;;12.55;6.50;;;18.60;99.90;;;;;;3620177;39;20144;-81
2021/06/16 06:55:59;;;;;;;12.70;6.18;;;19.10;99.90;;;;;;3621451;39;20060;-81
2021/06/16 06:58:25;;;;;;;14.52;6.97;;;19.00;99.90;;;;;;3616487;39;20357;-84
2021/06/16 07:00:51;;;;;;;12.45;6.50;;;18.50;99.90;;;;;;3618514;39;20074;-83
2021/06/16 07:03:17;;;;;;;19.77;7.57;;;18.70;99.90;;;;;;3622139;39;20063;-82
2021/06/16 07:05:43;;;;;;;11.30;6.13;;;19.50;99.90;;;;;;3621982;39;20392;-83
2021/06/16 07:08:09;;;;;;;12.18;5.97;;;19.70;99.90;;;;;;3616550;39;20054;-82
2021/06/16 07:10:34;;;;;;;17.95;6.40;;;19.20;99.90;;;;;;3612238;39;20031;-82
2021/06/16 07:13:00;;;;;;;18.17;6.55;;;19.50;99.90;;;;;;3597355;39;20429;-83
2021/06/16 07:15:26;;;;;;;16.55;5.93;;;19.80;99.90;;;;;;3611177;39;20131;-82
2021/06/16 07:17:52;;;;;;;11.43;5.38;;;20.30;99.90;;;;;;3599163;39;20063;-81
2021/06/16 07:20:18;;;;;;;12.98;6.50;;;20.10;99.90;;;;;;3604740;39;20066;-82
2021/06/16 07:22:45;;;;;;;14.63;5.78;;;19.90;99.90;;;;;;3614456;39;20112;-82
2021/06/16 07:25:11;;;;;;;11.05;5.00;;;20.00;99.90;;;;;;3614685;39;20048;-83
2021/06/16 07:27:37;;;;;;;10.57;5.50;;;20.60;99.90;;;;;;3613831;39;20054;-83
2021/06/16 07:30:06;;;;;;;11.15;5.15;;;20.20;99.90;;;;;;3613994;39;20059;-81
2021/06/16 07:32:33;;;;;;;11.38;5.90;;;20.40;99.90;;;;;;3613283;39;20076;-81
2021/06/16 07:34:59;;;;;;;10.40;5.28;;;20.60;99.90;;;;;;3608424;39;20047;-83
2021/06/16 07:37:26;;;;;;;11.88;5.95;;;20.70;99.90;;;;;;3606415;39;20040;-83
2021/06/16 07:39:52;;;;;;;14.60;6.22;;;20.60;99.90;;;;;;3604108;39;20040;-82
2021/06/16 07:42:18;;;;;;;12.48;4.93;;;20.60;99.90;;;;;;3606043;39;20047;-83
2021/06/16 07:44:43;;;;;;;14.63;4.65;;;21.40;99.90;;;;;;3607842;39;20482;-83
2021/06/16 07:47:09;;;;;;;9.02;5.78;;;21.70;99.90;;;;;;3606492;39;20069;-84
2021/06/16 07:49:35;;;;;;;11.50;5.53;;;21.30;99.90;;;;;;3605796;39;20364;-83
2021/06/16 07:52:00;;;;;;;18.77;5.22;;;20.90;99.90;;;;;;3605922;39;20048;-83
2021/06/16 07:54:26;;;;;;;13.35;5.57;;;21.50;99.90;;;;;;3607322;39;20433;-81
2021/06/16 07:56:52;;;;;;;12.90;5.72;;;21.40;99.90;;;;;;3606925;39;20251;-82
2021/06/16 07:59:17;;;;;;;12.57;4.68;;;21.70;99.90;;;;;;3606530;39;20059;-82
2021/06/16 08:01:43;;;;;;;9.18;5.07;;;22.10;99.90;;;;;;3588582;39;20048;-83
2021/06/16 08:04:10;;;;;;;13.68;5.65;;;21.40;99.90;;;;;;3598845;39;20346;-82
2021/06/16 08:06:35;;;;;;;6.07;3.90;;;21.70;99.90;;;;;;3586895;40;20059;-82
2021/06/16 08:09:01;;;;;;;9.52;4.72;;;21.90;99.90;;;;;;3603353;39;20314;-84
2021/06/16 08:11:27;;;;;;;8.93;5.47;;;21.70;99.90;;;;;;3603162;39;20048;-82
2021/06/16 08:13:53;;;;;;;9.30;4.45;;;22.20;99.90;;;;;;3599797;39;20056;-82
2021/06/16 08:16:20;;;;;;;11.93;5.45;;;22.60;99.90;;;;;;3605117;39;20413;-84
2021/06/16 08:18:47;;;;;;;11.57;6.40;;;22.60;99.90;;;;;;3600802;39;20426;-84
2021/06/16 08:21:13;;;;;;;14.55;5.55;;;22.80;99.90;;;;;;3601971;39;21152;-85
2021/06/16 08:23:40;;;;;;;11.63;5.97;;;22.70;99.90;;;;;;3605826;39;20064;-89
2021/06/16 08:26:06;;;;;;;12.15;4.90;;;22.50;99.90;;;;;;3606108;39;20081;-83
2021/06/16 08:28:32;;;;;;;10.10;3.97;;;22.20;99.90;;;;;;3605241;39;20065;-83
2021/06/16 08:30:57;;;;;;;10.75;4.50;;;23.00;99.90;;;;;;3606674;39;20054;-84
2021/06/16 08:33:23;;;;;;;11.13;5.30;;;22.60;99.90;;;;;;3605433;39;20060;-85
2021/06/16 08:35:49;;;;;;;11.10;4.40;;;22.30;99.90;;;;;;3592740;40;20055;-84
2021/06/16 08:38:14;;;;;;;11.40;4.55;;;23.10;99.90;;;;;;3605161;39;20142;-82
2021/06/16 08:40:40;;;;;;;11.82;4.63;;;23.40;99.90;;;;;;3606523;39;20059;-84
2021/06/16 08:43:06;;;;;;;14.73;4.75;;;22.90;99.40;;;;;;3603933;39;20040;-82
2021/06/16 08:45:37;;;;;;;11.50;5.15;;;23.60;99.90;;;;;;3592087;39;20044;-83
2021/06/16 08:48:03;;;;;;;11.25;5.28;;;23.20;97.90;;;;;;3596339;39;20343;-82
2021/06/16 08:50:29;;;;;;;10.63;4.93;;;22.90;98.80;;;;;;3603862;39;20052;-82
2021/06/16 08:52:55;;;;;;;8.30;4.03;;;22.80;98.80;;;;;;3605037;39;20058;-82
2021/06/16 08:55:21;;;;;;;12.25;4.30;;;23.10;99.90;;;;;;3605990;39;20318;-82
2021/06/16 08:57:48;;;;;;;13.88;5.13;;;23.90;98.30;;;;;;3606103;39;20055;-84
2021/06/16 09:00:15;;;;;;;10.07;4.30;;;23.70;97.90;;;;;;3595030;39;20048;-85
2021/06/16 09:02:41;;;;;;;11.15;4.68;;;24.30;98.20;;;;;;3604463;39;20158;-85
2021/06/16 09:05:08;;;;;;;6.97;3.65;;;24.30;98.00;;;;;;3607583;39;20055;-84
2021/06/16 09:07:34;;;;;;;21.67;4.97;;;24.30;97.70;;;;;;3605520;39;20549;-81
2021/06/16 09:10:14;;;;;;;11.75;5.57;;;24.50;97.30;;;;;;3605351;39;20069;-82
2021/06/16 09:12:46;;;;;;;11.10;4.40;;;24.10;96.70;;;;;;3603122;39;20055;-83
2021/06/16 09:15:17;;;;;;;9.73;4.75;;;24.50;95.80;;;;;;3606784;39;20047;-82
2021/06/16 09:17:59;;;;;;;13.48;4.90;;;24.80;95.30;;;;;;3605282;39;20043;-82
2021/06/16 09:20:27;;;;;;;9.15;5.40;;;25.20;94.10;;;;;;3604269;39;20397;-84
2021/06/16 09:23:11;;;;;;;15.05;5.22;;;25.70;94.40;;;;;;3606041;39;20043;-84
2021/06/16 09:25:38;;;;;;;16.13;5.75;;;25.30;93.50;;;;;;3595319;39;20055;-83
2021/06/16 09:28:04;;;;;;;11.27;5.13;;;25.80;92.60;;;;;;3604249;39;20047;-82
2021/06/16 09:30:33;;;;;;;10.55;5.40;;;25.30;92.90;;;;;;3604296;39;20074;-83
2021/06/16 09:33:06;;;;;;;11.93;4.75;;;25.40;92.20;;;;;;3601485;39;20133;-82
2021/06/16 09:35:42;;;;;;;18.02;6.53;;;25.70;91.90;;;;;;3603388;39;20055;-82
2021/06/16 09:38:19;;;;;;;10.77;5.57;;;25.80;91.70;;;;;;3605272;39;20088;-83
2021/06/16 09:40:45;;;;;;;11.32;5.93;;;25.90;90.70;;;;;;3605043;39;20048;-83
2021/06/16 09:43:16;;;;;;;9.05;4.50;;;25.70;91.00;;;;;;3606052;39;20040;-83
2021/06/16 09:45:44;;;;;;;9.73;5.55;;;26.30;91.10;;;;;;3603118;39;20048;-83
2021/06/16 09:48:34;;;;;;;12.02;5.93;;;26.50;90.60;;;;;;3604673;39;20083;-83
2021/06/16 09:51:28;;;;;;;9.02;4.93;;;27.30;89.50;;;;;;3605581;39;20158;-83
2021/06/16 09:54:15;;;;;;;9.30;5.22;;;27.20;87.70;;;;;;3597047;39;20059;-85
2021/06/16 09:56:51;;;;;;;12.02;4.22;;;27.50;86.90;;;;;;3603943;39;20053;-83
2021/06/16 09:59:37;;;;;;;11.52;5.15;;;27.50;86.20;;;;;;3605076;39;20430;-84
2021/06/16 10:02:03;;;;;;;10.20;5.47;;;27.50;85.00;;;;;;3596831;39;20184;-86
2021/06/16 10:04:43;;;;;;;10.80;4.72;;;27.90;84.80;;;;;;3605716;39;20047;-84
2021/06/16 10:07:13;;;;;;;9.73;4.53;;;27.90;83.50;;;;;;3605237;39;20430;-84
2021/06/16 10:09:51;;;;;;;7.05;4.93;;;27.70;84.40;;;;;;3605870;39;20047;-84
2021/06/16 10:12:18;;;;;;;8.55;4.57;;;26.90;84.50;;;;;;3604551;39;20047;-84
2021/06/16 10:14:44;;;;;;;10.13;4.78;;;26.30;86.70;;;;;;3603424;39;20054;-83
2021/06/16 10:17:10;;;;;;;10.27;5.03;;;26.50;86.80;;;;;;3603175;39;20060;-83
2021/06/16 10:19:36;;;;;;;8.93;4.35;;;26.80;86.50;;;;;;3601158;39;20058;-84
2021/06/16 10:22:03;;;;;;;8.20;3.85;;;26.40;88.20;;;;;;3604857;39;20047;-84
2021/06/16 10:24:29;;;;;;;9.18;4.10;;;26.80;89.70;;;;;;3603570;39;20059;-84
2021/06/16 10:26:58;;;;;;;8.65;5.05;;;27.00;89.60;;;;;;3599881;39;20040;-82
2021/06/16 10:29:31;;;;;;;5.20;3.90;;;26.40;90.20;;;;;;3596963;39;20166;-85
2021/06/16 10:32:06;;;;;;;8.13;4.50;;;27.00;89.50;;;;;;3605916;39;20421;-84
2021/06/16 10:34:53;;;;;;;10.35;5.05;;;26.60;88.30;;;;;;3605736;39;20107;-83
2021/06/16 10:37:30;;;;;;;6.97;4.40;;;26.80;90.80;;;;;;3594931;39;20052;-82
2021/06/16 10:40:23;;;;;;;7.82;4.68;;;27.20;89.20;;;;;;3606343;39;20040;-83
2021/06/16 10:43:05;;;;;;;5.80;4.30;;;27.10;88.00;;;;;;3604774;39;20052;-83
2021/06/16 10:45:36;;;;;;;7.13;4.82;;;27.20;89.30;;;;;;3606001;39;20055;-81
2021/06/16 10:48:05;;;;;;;7.82;5.10;;;26.70;89.80;;;;;;3604511;39;20133;-83
2021/06/16 10:50:48;;;;;;;5.78;4.50;;;26.80;88.80;;;;;;3605565;39;20051;-83
2021/06/16 10:53:15;;;;;;;8.88;4.22;;;27.30;87.80;;;;;;3600020;39;20060;-82
2021/06/16 10:56:02;;;;;;;8.02;4.65;;;27.00;89.20;;;;;;3595876;39;20162;-82
2021/06/16 10:58:44;;;;;;;5.78;3.35;;;27.10;90.70;;;;;;3605421;39;20128;-85
2021/06/16 11:01:17;;;;;;;7.50;3.53;;;28.00;90.00;;;;;;3605301;39;20397;-84
2021/06/16 11:03:50;;;;;;;6.68;3.63;;;27.80;89.50;;;;;;3595715;39;20062;-85
2021/06/16 11:06:35;;;;;;;6.22;3.80;;;27.50;88.40;;;;;;3603246;39;20072;-82
2021/06/16 11:09:07;;;;;;;4.32;3.65;;;27.50;89.00;;;;;;3605122;39;20051;-83
2021/06/16 11:12:00;;;;;;;6.88;3.75;;;27.80;86.80;;;;;;3597030;39;20048;-82
2021/06/16 11:14:37;;;;;;;5.07;3.97;;;27.40;88.50;;;;;;3606702;39;20047;-83
2021/06/16 11:17:29;;;;;;;5.97;3.35;;;27.70;86.80;;;;;;3607241;39;20047;-83
2021/06/16 11:19:56;;;;;;;6.87;3.07;;;27.20;86.50;;;;;;3606338;39;20059;-84
2021/06/16 11:22:24;;;;;;;7.57;3.78;;;27.90;87.10;;;;;;3607270;39;20067;-82
2021/06/16 11:25:10;;;;;;;6.88;3.95;;;27.30;88.00;;;;;;3606625;39;20070;-83
2021/06/16 11:27:51;;;;;;;5.60;4.13;;;27.30;84.70;;;;;;3600885;39;20057;-82
2021/06/16 11:30:36;;;;;;;9.05;3.15;;;27.40;88.90;;;;;;3601147;39;20088;-84
2021/06/16 11:33:31;;;;;;;8.38;3.13;;;27.80;87.00;;;;;;3605604;39;20048;-82
2021/06/16 11:36:02;;;;;;;6.70;3.35;;;28.20;85.40;;;;;;3596562;39;20080;-83
2021/06/16 11:38:36;;;;;;;8.45;4.03;;;27.80;85.30;;;;;;3605864;39;20051;-82
2021/06/16 11:41:16;;;;;;;6.97;3.15;;;27.50;86.10;;;;;;3597316;39;20082;-83
2021/06/16 11:43:44;;;;;;;5.43;2.92;;;27.70;87.10;;;;;;3605011;39;20059;-82
2021/06/16 11:46:33;;;;;;;5.25;3.33;;;28.20;85.00;;;;;;3606734;39;20055;-83
2021/06/16 11:49:24;;;;;;;6.05;3.83;;;27.30;83.00;;;;;;3606071;39;20051;-83
2021/06/16 11:51:53;;;;;;;6.82;3.63;;;28.00;85.80;;;;;;3606685;39;20051;-83
2021/06/16 11:54:33;;;;;;;6.45;3.67;;;28.10;84.00;;;;;;3605802;39;20063;-83
2021/06/16 11:57:09;;;;;;;5.53;3.38;;;27.50;82.90;;;;;;3606664;39;20070;-83
2021/06/16 11:59:39;;;;;;;9.13;4.22;;;27.60;81.10;;;;;;3606276;39;20514;-83
2021/06/16 12:02:09;;;;;;;5.53;3.17;;;27.80;80.70;;;;;;3594228;39;20401;-84
2021/06/16 12:04:45;;;;;;;6.90;3.22;;;27.50;81.50;;;;;;3605718;39;20418;-83
2021/06/16 12:07:11;;;;;;;6.47;2.78;;;28.30;80.40;;;;;;3606610;39;20047;-83
2021/06/16 12:09:44;;;;;;;6.93;3.00;;;28.40;78.50;;;;;;3606294;39;20399;-84
2021/06/16 12:12:10;;;;;;;8.43;3.13;;;28.00;78.10;;;;;;3606616;39;20147;-84
2021/06/16 12:14:36;;;;;;;9.68;2.90;;;27.60;77.80;;;;;;3607079;39;20088;-84
2021/06/16 12:17:05;;;;;;;4.93;3.47;;;27.90;79.70;;;;;;3597592;39;20137;-83
2021/06/16 12:19:36;;;;;;;6.85;3.30;;;28.10;78.50;;;;;;3606496;39;20066;-83
2021/06/16 12:22:11;;;;;;;6.80;3.25;;;27.90;80.70;;;;;;3606860;39;20052;-84
2021/06/16 12:24:44;;;;;;;4.72;3.00;;;28.20;77.90;;;;;;3603641;39;20384;-83
2021/06/16 12:27:15;;;;;;;4.35;2.30;;;27.30;78.30;;;;;;3605396;39;20395;-83
2021/06/16 12:29:53;;;;;;;8.60;5.28;;;27.60;72.50;;;;;;3606407;39;20440;-82
2021/06/16 12:32:30;;;;;;;8.95;2.80;;;27.90;69.60;;;;;;3601541;39;20407;-83
2021/06/16 12:37:55;;;;;;;6.93;3.08;;;28.10;71.90;;;;;;3595865;40;20048;-83
2021/06/16 12:40:33;;;;;;;4.82;2.83;;;27.40;72.90;;;;;;3597042;39;20080;-84
2021/06/16 12:42:59;;;;;;;5.53;2.55;;;27.90;72.80;;;;;;3596587;39;20079;-84
2021/06/16 12:45:30;;;;;;;4.85;2.30;;;27.80;73.00;;;;;;3606188;39;20057;-84
2021/06/16 12:47:57;;;;;;;4.07;2.35;;;27.80;72.30;;;;;;3605706;39;20047;-83
2021/06/16 12:50:29;;;;;;;6.22;2.65;;;27.70;71.80;;;;;;3597018;39;20106;-84
2021/06/16 12:52:55;;;;;;;3.67;2.73;;;27.50;70.60;;;;;;3605993;39;20063;-83
2021/06/16 12:55:22;;;;;;;7.75;3.25;;;27.20;70.80;;;;;;3606278;39;20047;-81
2021/06/16 12:57:53;;;;;;;4.70;2.80;;;26.90;70.40;;;;;;3606308;39;20128;-82
2021/06/16 13:00:27;;;;;;;5.67;2.70;;;27.20;72.00;;;;;;3606167;39;20051;-85
2021/06/16 13:02:53;;;;;;;3.40;2.28;;;27.60;72.10;;;;;;3606652;39;20052;-83
2021/06/16 13:05:28;;;;;;;6.75;2.60;;;28.40;70.40;;;;;;3606350;39;20317;-82
2021/06/16 13:07:55;;;;;;;4.05;2.50;;;28.40;69.80;;;;;;3606888;39;20047;-85
2021/06/16 13:10:24;;;;;;;4.47;2.38;;;28.20;68.90;;;;;;3603605;39;20322;-83
2021/06/16 13:12:57;;;;;;;4.85;2.60;;;27.80;70.20;;;;;;3596171;40;20350;-83
2021/06/16 13:15:24;;;;;;;8.73;2.88;;;28.10;71.10;;;;;;3590185;40;20044;-84
2021/06/16 13:17:54;;;;;;;8.38;3.03;;;28.40;70.80;;;;;;3603725;39;20074;-82
2021/06/16 13:20:29;;;;;;;5.03;2.10;;;28.40;69.40;;;;;;3599477;39;20315;-81
2021/06/16 13:22:55;;;;;;;3.88;1.98;;;28.50;67.10;;;;;;3597088;39;20501;-85
2021/06/16 13:25:30;;;;;;;5.10;2.92;;;28.90;66.30;;;;;;3598611;39;20056;-83
2021/06/16 13:27:59;;;;;;;5.00;2.05;;;27.50;65.20;;;;;;3605559;39;20059;-82
2021/06/16 13:30:32;;;;;;;5.88;1.92;;;27.20;65.40;;;;;;3605998;39;20052;-81
2021/06/16 13:32:59;;;;;;;6.47;2.88;;;28.00;67.70;;;;;;3594929;39;20104;-83
2021/06/16 13:35:30;;;;;;;5.30;1.90;;;28.60;66.10;;;;;;3606862;39;20055;-82
2021/06/16 13:37:57;;;;;;;4.15;2.10;;;28.50;66.70;;;;;;3604744;39;20075;-83
2021/06/16 13:40:25;;;;;;;6.00;2.13;;;27.80;66.10;;;;;;3597978;39;20059;-83
2021/06/16 13:42:53;;;;;;;4.00;2.15;;;27.70;65.40;;;;;;3606408;39;20052;-83
2021/06/16 13:45:20;;;;;;;5.00;1.80;;;27.60;67.30;;;;;;3607144;39;20410;-84
2021/06/16 13:47:46;;;;;;;6.03;4.13;;;27.80;64.60;;;;;;3597150;39;20051;-82
2021/06/16 13:50:13;;;;;;;5.10;3.05;;;28.30;65.10;;;;;;3596941;40;20129;-83
2021/06/16 13:52:39;;;;;;;8.35;4.13;;;28.70;63.70;;;;;;3603379;39;20040;-83
2021/06/16 13:55:07;;;;;;;5.22;2.22;;;28.40;63.60;;;;;;3602273;39;20105;-83
2021/06/16 13:57:32;;;;;;;5.38;2.40;;;28.90;63.00;;;;;;3604597;39;20043;-83
2021/06/16 13:59:58;;;;;;;8.00;4.93;;;28.00;63.70;;;;;;3601123;39;20075;-82
2021/06/16 14:02:24;;;;;;;5.25;2.15;;;28.40;65.00;;;;;;3596448;39;20043;-84
2021/06/16 14:04:49;;;;;;;3.00;2.03;;;28.70;63.80;;;;;;3595936;39;20370;-84
2021/06/16 14:07:15;;;;;;;4.78;3.13;;;27.80;65.00;;;;;;3597915;39;20129;-86
2021/06/16 14:09:41;;;;;;;4.57;2.90;;;28.20;64.60;;;;;;3601992;39;20121;-85
2021/06/16 14:12:07;;;;;;;3.08;2.50;;;28.00;64.70;;;;;;3602372;39;20055;-85
2021/06/16 14:14:32;;;;;;;5.35;2.50;;;27.70;64.50;;;;;;3603428;39;20055;-83
2021/06/16 14:16:58;;;;;;;3.40;2.20;;;27.50;65.50;;;;;;3596541;39;20070;-86
2021/06/16 14:19:24;;;;;;;5.80;2.35;;;27.20;66.60;;;;;;3595112;40;20052;-84
2021/06/16 14:21:50;;;;;;;5.38;2.47;;;27.90;66.50;;;;;;3596063;40;20141;-84
2021/06/16 14:24:17;;;;;;;4.72;2.63;;;27.60;65.50;;;;;;3597616;39;20133;-85
2021/06/16 14:26:44;;;;;;;6.10;2.90;;;27.90;66.20;;;;;;3604534;39;20900;-82
2021/06/16 14:29:10;;;;;;;5.10;2.55;;;27.90;66.80;;;;;;3606137;39;20051;-83
2021/06/16 14:31:37;;;;;;;5.25;2.42;;;27.50;65.90;;;;;;3604640;39;20412;-83
2021/06/16 14:34:03;;;;;;;5.00;3.03;;;27.80;66.60;;;;;;3596752;39;20076;-86
2021/06/16 14:36:29;;;;;;;6.80;2.97;;;28.40;65.80;;;;;;3599917;39;20052;-84
2021/06/16 14:38:55;;;;;;;4.75;2.75;;;27.90;66.00;;;;;;3605934;39;20048;-83
2021/06/16 14:41:24;;;;;;;3.83;2.50;;;27.80;66.50;;;;;;3602653;39;20052;-87
2021/06/16 14:43:50;;;;;;;4.28;3.25;;;27.30;66.80;;;;;;3603617;39;20079;-85
2021/06/16 14:46:16;;;;;;;3.83;2.85;;;27.20;66.80;;;;;;3596287;40;20056;-84
2021/06/16 14:48:41;;;;;;;3.25;2.83;;;27.30;67.40;;;;;;3596944;40;20338;-85
2021/06/16 14:51:07;;;;;;;5.95;2.88;;;27.30;67.80;;;;;;3596864;39;20434;-86
2021/06/16 14:53:36;;;;;;;4.85;3.10;;;27.20;68.30;;;;;;3597567;39;20175;-84
2021/06/16 14:56:02;;;;;;;11.25;3.92;;;27.20;68.40;;;;;;3606974;39;20063;-83
2021/06/16 14:58:29;;;;;;;5.45;2.85;;;27.70;69.70;;;;;;3600588;39;20051;-86
2021/06/16 15:00:55;;;;;;;4.68;2.85;;;27.70;68.90;;;;;;3606728;39;20084;-85
2021/06/16 15:03:21;;;;;;;5.70;2.97;;;28.00;67.90;;;;;;3605704;39;20051;-84
2021/06/16 15:05:46;;;;;;;3.22;2.30;;;27.90;67.10;;;;;;3607063;39;20412;-84
2021/06/16 15:08:12;;;;;;;4.70;2.70;;;28.20;67.30;;;;;;3593375;40;20055;-86
2021/06/16 15:10:38;;;;;;;7.03;3.15;;;28.20;67.50;;;;;;3596920;40;20402;-86
2021/06/16 15:13:04;;;;;;;6.45;2.90;;;27.90;67.00;;;;;;3603469;39;20048;-84
2021/06/16 15:15:31;;;;;;;6.55;4.10;;;27.70;67.20;;;;;;3604246;39;20074;-85
2021/06/16 15:17:57;;;;;;;5.72;2.78;;;27.90;69.60;;;;;;3603603;39;20074;-84
2021/06/16 15:20:23;;;;;;;3.65;2.60;;;28.10;68.00;;;;;;3597812;39;20448;-83
2021/06/16 15:22:52;;;;;;;7.80;3.65;;;27.50;68.00;;;;;;3585738;40;20040;-85
2021/06/16 15:25:23;;;;;;;7.55;2.80;;;27.30;68.10;;;;;;3588109;40;20060;-85
2021/06/16 15:27:51;;;;;;;5.80;3.10;;;27.40;68.50;;;;;;3597138;40;20039;-85
2021/06/16 15:30:20;;;;;;;4.78;2.67;;;27.90;68.20;;;;;;3597121;40;20340;-83
2021/06/16 15:32:46;;;;;;;3.60;2.85;;;27.70;67.90;;;;;;3596450;40;20577;-84
2021/06/16 15:35:12;;;;;;;4.85;2.70;;;27.50;67.40;;;;;;3596038;40;20060;-85
2021/06/16 15:37:39;;;;;;;4.60;2.65;;;27.80;67.90;;;;;;3588898;40;20060;-84
2021/06/16 15:40:07;;;;;;;5.38;2.47;;;27.80;67.50;;;;;;3591242;40;20205;-80
2021/06/16 15:42:33;;;;;;;3.08;2.80;;;27.80;68.40;;;;;;3593281;40;20092;-82
2021/06/16 15:44:59;;;;;;;4.75;2.60;;;27.20;68.20;;;;;;3592771;40;20044;-81
2021/06/16 15:47:25;;;;;;;8.40;3.22;;;27.60;68.70;;;;;;3592887;40;20051;-84
2021/06/16 15:49:51;;;;;;;5.22;2.95;;;28.30;68.00;;;;;;3596239;40;20048;-85
2021/06/16 15:52:19;;;;;;;4.68;3.03;;;28.30;68.90;;;;;;3594275;40;20359;-82
2021/06/16 15:54:46;;;;;;;6.45;3.28;;;28.30;68.90;;;;;;3586979;40;20052;-83
2021/06/16 15:57:11;;;;;;;4.50;3.28;;;28.10;68.40;;;;;;3587320;40;20064;-83
2021/06/16 15:59:38;;;;;;;7.43;3.35;;;27.90;67.90;;;;;;3589933;40;20150;-84
2021/06/16 16:02:09;;;;;;;4.93;3.22;;;27.70;67.50;;;;;;3589677;40;20052;-82
2021/06/16 16:04:35;;;;;;;4.20;3.13;;;27.70;67.80;;;;;;3590947;40;20068;-82
2021/06/16 16:07:00;;;;;;;3.90;2.80;;;27.60;68.30;;;;;;3587882;40;20052;-82
2021/06/16 16:09:26;;;;;;;3.20;2.70;;;27.50;69.20;;;;;;3591469;40;20064;-83
2021/06/16 16:11:52;;;;;;;3.38;2.53;;;27.80;69.40;;;;;;3587304;40;20054;-83
2021/06/16 16:14:17;;;;;;;3.88;2.55;;;27.80;69.40;;;;;;3594253;40;20044;-83
2021/06/16 16:16:43;;;;;;;8.18;3.22;;;27.70;70.50;;;;;;3589132;40;20051;-86
2021/06/16 16:19:09;;;;;;;5.63;2.97;;;27.70;69.00;;;;;;3593768;40;20056;-85
2021/06/16 16:21:34;;;;;;;4.18;2.65;;;27.90;69.20;;;;;;3595669;40;20430;-85
2021/06/16 16:24:04;;;;;;;3.85;2.63;;;28.00;69.50;;;;;;3596294;39;20044;-85
2021/06/16 16:26:30;;;;;;;2.65;2.42;;;27.90;70.20;;;;;;3599821;39;20575;-82
2021/06/16 16:28:56;;;;;;;6.07;2.75;;;28.20;70.10;;;;;;3606398;39;20429;-85
2021/06/16 16:31:22;;;;;;;3.63;2.80;;;28.30;70.10;;;;;;3606690;39;20113;-82
2021/06/16 16:33:47;;;;;;;4.93;3.08;;;28.50;70.20;;;;;;3601302;39;20032;-80
2021/06/16 16:36:13;;;;;;;5.65;2.47;;;28.50;69.90;;;;;;3598327;39;20326;-81
2021/06/16 16:38:41;;;;;;;3.72;2.22;;;28.50;70.90;;;;;;3602691;39;20410;-82
2021/06/16 16:41:07;;;;;;;5.55;2.70;;;28.60;70.70;;;;;;3597408;39;20056;-81
2021/06/16 16:43:33;;;;;;;5.25;2.38;;;28.80;70.70;;;;;;3592200;40;20078;-83
2021/06/16 16:45:58;;;;;;;4.15;2.70;;;28.80;70.80;;;;;;3597847;39;20402;-83
2021/06/16 16:48:24;;;;;;;4.88;2.33;;;28.80;69.60;;;;;;3599309;39;20040;-83
2021/06/16 16:50:51;;;;;;;7.30;2.75;;;28.70;70.70;;;;;;3603896;39;20050;-82
2021/06/16 16:53:16;;;;;;;4.15;3.22;;;28.50;69.30;;;;;;3606944;39;20047;-82
2021/06/16 16:55:42;;;;;;;3.78;2.88;;;28.10;70.60;;;;;;3602125;39;20056;-81
2021/06/16 16:58:08;;;;;;;2.53;2.33;;;28.00;71.30;;;;;;3600749;39;20164;-83
2021/06/16 17:00:34;;;;;;;3.50;2.88;;;28.10;71.40;;;;;;3599934;39;20441;-83
2021/06/16 17:03:00;;;;;;;9.85;3.40;;;28.10;75.60;;;;;;3600248;39;20083;-81
2021/06/16 17:05:28;;;;;;;6.32;3.55;;;27.30;87.00;;;;;;3604084;39;20047;-80
2021/06/16 17:07:54;;;;;;;8.85;3.10;;;27.10;91.80;;;;;;3601997;39;20062;-82
2021/06/16 17:10:21;;;;;;;12.43;4.18;;;26.90;93.30;;;;;;3605476;39;20323;-83
2021/06/16 17:12:49;;;;;;;8.55;4.03;;;27.00;95.40;;;;;;3605272;39;20047;-83
2021/06/16 17:15:17;;;;;;;12.27;4.95;;;26.80;95.90;;;;;;3604508;39;20036;-83
2021/06/16 17:17:43;;;;;;;9.02;3.78;;;26.50;97.10;;;;;;3601492;39;20044;-82
2021/06/16 17:20:10;;;;;;;14.07;4.55;;;26.60;98.50;;;;;;3597001;39;20050;-83
2021/06/16 17:22:38;;;;;;;17.95;5.78;;;26.30;99.90;;;;;;3597311;39;20342;-81
2021/06/16 17:25:09;;;;;;;11.95;3.67;;;26.10;99.90;;;;;;3603696;39;20052;-84
2021/06/16 17:27:35;;;;;;;12.70;4.07;;;26.00;99.90;;;;;;3598897;39;20056;-85
2021/06/16 17:30:03;;;;;;;10.05;4.07;;;26.00;99.90;;;;;;3598505;39;20356;-82
2021/06/16 17:32:29;;;;;;;10.32;3.47;;;25.90;99.90;;;;;;3601307;39;20410;-83
2021/06/16 17:34:54;;;;;;;10.30;4.13;;;25.90;99.90;;;;;;3596943;39;20083;-84
2021/06/16 17:37:20;;;;;;;9.35;3.88;;;25.90;99.90;;;;;;3597855;39;20083;-84
2021/06/16 17:39:46;;;;;;;10.57;4.10;;;25.80;99.90;;;;;;3596558;40;20140;-82
2021/06/16 17:42:12;;;;;;;10.30;3.50;;;25.90;99.90;;;;;;3603295;39;20043;-85
2021/06/16 17:44:40;;;;;;;10.52;4.38;;;25.80;99.90;;;;;;3606992;39;20063;-84
2021/06/16 17:47:06;;;;;;;10.45;3.13;;;25.80;99.90;;;;;;3605095;39;20054;-84
2021/06/16 17:49:36;;;;;;;11.10;4.40;;;25.70;99.90;;;;;;3596825;39;20060;-85
2021/06/16 17:52:03;;;;;;;12.80;4.25;;;25.70;99.90;;;;;;3600841;39;20149;-84
2021/06/16 17:54:29;;;;;;;13.27;3.58;;;25.60;99.90;;;;;;3596225;39;20048;-85
2021/06/16 17:56:54;;;;;;;8.63;4.18;;;25.40;99.90;;;;;;3596595;39;20142;-84
2021/06/16 17:59:20;;;;;;;12.73;3.15;;;25.40;99.90;;;;;;3599901;39;20406;-84
2021/06/16 18:01:46;;;;;;;10.10;3.75;;;25.40;99.90;;;;;;3600564;39;20052;-84
2021/06/16 18:04:12;;;;;;;13.50;3.78;;;25.40;99.90;;;;;;3605041;39;20055;-83
2021/06/16 18:06:39;;;;;;;8.73;2.60;;;25.00;99.90;;;;;;3600233;39;20390;-83
2021/06/16 18:09:06;;;;;;;9.43;2.63;;;24.80;99.90;;;;;;3606464;39;20055;-83
2021/06/16 18:11:33;;;;;;;11.43;4.10;;;24.70;99.90;;;;;;3599452;39;20421;-83
2021/06/16 18:13:59;;;;;;;5.80;2.42;;;24.80;99.90;;;;;;3602567;39;20051;-84
2021/06/16 18:16:25;;;;;;;10.05;3.17;;;24.80;99.90;;;;;;3597504;39;20052;-82
2021/06/16 18:18:54;;;;;;;8.63;2.42;;;24.90;99.90;;;;;;3597885;39;20048;-84
2021/06/16 18:21:23;;;;;;;8.70;2.67;;;24.90;99.90;;;;;;3601635;39;20059;-83
2021/06/16 18:23:50;;;;;;;7.68;2.65;;;24.80;99.90;;;;;;3606237;39;20043;-83
2021/06/16 18:26:16;;;;;;;10.93;3.22;;;24.50;99.90;;;;;;3604222;39;20043;-82
2021/06/16 18:28:41;;;;;;;13.23;2.60;;;24.40;99.90;;;;;;3605561;39;20043;-84
2021/06/16 18:31:08;;;;;;;11.05;3.50;;;24.40;99.90;;;;;;3604068;39;20054;-84
2021/06/16 18:33:33;;;;;;;12.40;2.50;;;24.40;99.90;;;;;;3605065;39;20048;-82
2021/06/16 18:36:05;;;;;;;11.43;2.80;;;24.40;99.90;;;;;;3603131;39;20491;-83
2021/06/16 18:38:32;;;;;;;10.82;3.05;;;24.30;99.90;;;;;;3602184;39;20141;-84
2021/06/16 18:40:58;;;;;;;7.40;2.67;;;24.10;99.90;;;;;;3591452;39;20511;-82
2021/06/16 18:43:23;;;;;;;7.95;2.58;;;24.10;99.90;;;;;;3601739;39;20052;-82
2021/06/16 18:45:49;;;;;;;5.28;2.53;;;24.00;99.90;;;;;;3599622;39;20060;-86
2021/06/16 18:48:16;;;;;;;11.60;2.83;;;23.90;99.90;;;;;;3589164;39;20043;-81
2021/06/16 18:50:42;;;;;;;9.48;2.72;;;23.80;99.90;;;;;;3592291;40;20052;-86
2021/06/16 18:53:08;;;;;;;13.20;3.22;;;23.90;99.90;;;;;;3604412;39;20040;-84
2021/06/16 18:55:38;;;;;;;8.13;3.58;;;24.00;99.90;;;;;;3601610;39;20058;-82
2021/06/16 18:58:05;;;;;;;9.02;3.30;;;23.90;99.90;;;;;;3603416;39;20047;-83
2021/06/16 19:00:45;;;;;;;11.73;3.55;;;23.80;99.90;;;;;;3602918;39;20445;-86
2021/06/16 19:05:46;;;;;;;12.80;3.65;;;23.60;99.90;;;;;;3605403;39;20149;-83
2021/06/16 19:08:23;;;;;;;10.10;3.80;;;23.60;99.90;;;;;;3605873;39;20295;-83
2021/06/16 19:10:52;;;;;;;10.13;4.15;;;23.50;99.90;;;;;;3606110;39;20043;-82
2021/06/16 19:13:18;;;;;;;14.43;6.25;;;23.40;99.90;;;;;;3605078;39;20050;-83
2021/06/16 19:15:46;;;;;;;9.05;4.32;;;23.40;99.90;;;;;;3606069;39;20429;-83
2021/06/16 19:18:12;;;;;;;13.82;5.20;;;23.30;99.90;;;;;;3604848;39;20433;-83
2021/06/16 19:20:38;;;;;;;11.75;4.32;;;23.20;99.90;;;;;;3596276;39;20179;-82